Terminal Aerodrome Forecast
Issued by NWS Grand Forks, ND

Home | Current Version | Previous Version | Text Only | Print | Product List | Glossary On
Versions: 1 2 3 4 5 6 7 8 9 10 11 12 13 14 15 16 17 18
000
FTUS43 KFGF 212300
TAFFAR
TAF
KFAR 212322Z 2200/2224 03005KT P6SM BKN060
     FM220600 35005KT P6SM SCT030
     FM221000 34006KT P6SM SCT030
     FM221600 36007KT P6SM SCT050=

USA.gov is the U.S. government's official web portal to all federal, state and local government web resources and services.